Time;durP1;ratioP1;P1;durP2;ratioP2;P2;SDS_P1;SDS_P2;PMS_P1;PMS_P2;Temp;Humidity;BMP_temperature;BMP_pressure;BME280_temperature;BME280_humidity;BME280_pressure;Samples;Min_cycle;Max_cycle;Signal;HPM_P1;HPM_P2
2024/03/05 00:01:43;;;;;;;9.75;5.35;;;6.40;99.90;;;5.69;100.00;100488.84;4169848;28;20034;-78
2024/03/05 00:03:45;;;;;;;13.93;5.07;;;6.40;99.90;;;5.73;100.00;100482.41;4179180;28;20036;-78
2024/03/05 00:05:46;;;;;;;9.63;3.90;;;6.40;99.90;;;5.81;100.00;100481.75;4167855;28;20025;-78
2024/03/05 00:07:46;;;;;;;11.55;3.83;;;6.50;99.90;;;5.84;100.00;100490.16;4169080;28;20455;-78
2024/03/05 00:09:47;;;;;;;10.00;4.68;;;6.50;99.90;;;5.88;100.00;100496.84;4169029;28;20485;-79
2024/03/05 00:11:48;;;;;;;8.48;5.18;;;6.60;99.90;;;5.90;100.00;100504.53;4184202;28;20466;-78
2024/03/05 00:13:49;;;;;;;12.00;4.38;;;6.60;99.90;;;5.93;100.00;100505.13;4172396;28;20090;-78
2024/03/05 00:15:52;;;;;;;16.63;5.88;;;6.70;99.90;;;5.94;100.00;100516.41;4162646;28;20077;-78
2024/03/05 00:17:53;;;;;;;10.35;3.42;;;6.70;99.90;;;5.95;100.00;100523.28;4167796;28;20485;-78
2024/03/05 00:19:54;;;;;;;6.07;1.95;;;6.70;99.90;;;5.98;100.00;100528.25;4167292;28;20531;-78
2024/03/05 00:21:54;;;;;;;7.00;1.73;;;6.70;99.90;;;5.98;100.00;100534.34;4182050;28;20024;-78
2024/03/05 00:23:55;;;;;;;10.88;1.40;;;6.70;99.90;;;6.06;100.00;100546.78;4184416;28;20107;-78
2024/03/05 00:25:59;;;;;;;5.07;1.25;;;6.80;99.90;;;6.10;100.00;100551.63;4168862;28;20036;-78
2024/03/05 00:28:00;;;;;;;7.30;1.40;;;6.80;99.90;;;6.15;100.00;100550.41;4168775;28;20079;-78
2024/03/05 00:30:02;;;;;;;2.83;0.95;;;6.80;99.90;;;6.12;100.00;100554.13;4183945;28;20025;-78
2024/03/05 00:32:05;;;;;;;3.90;0.85;;;6.80;99.90;;;6.02;100.00;100559.31;4175895;28;20072;-78
2024/03/05 00:34:05;;;;;;;3.80;1.00;;;6.80;99.90;;;5.99;100.00;100543.03;4186765;28;20072;-78
2024/03/05 00:36:07;;;;;;;4.85;1.30;;;6.80;99.90;;;6.01;100.00;100528.84;4168692;28;20091;-78
2024/03/05 00:38:08;;;;;;;4.35;0.80;;;6.80;99.90;;;6.02;100.00;100521.81;4184258;28;20147;-78
2024/03/05 00:40:09;;;;;;;2.47;0.50;;;6.80;99.90;;;6.05;100.00;100530.25;4169050;28;20033;-78
2024/03/05 00:42:10;;;;;;;3.28;1.00;;;6.80;99.90;;;6.05;100.00;100537.25;4188882;28;20588;-78
2024/03/05 00:44:11;;;;;;;4.80;0.60;;;6.80;99.90;;;6.01;100.00;100533.22;4168712;28;20085;-78
2024/03/05 00:46:12;;;;;;;1.92;0.50;;;6.80;99.90;;;6.00;100.00;100535.03;4183537;28;20021;-78
2024/03/05 00:48:13;;;;;;;3.33;0.82;;;6.80;99.90;;;5.97;100.00;100531.88;4168728;28;20500;-78
2024/03/05 00:50:14;;;;;;;1.60;0.50;;;6.80;99.90;;;5.97;100.00;100531.88;4168747;28;20036;-78
2024/03/05 00:52:14;;;;;;;4.13;1.33;;;6.70;99.90;;;5.95;100.00;100528.53;4183614;28;20037;-78
2024/03/05 00:54:15;;;;;;;6.45;1.58;;;6.70;99.90;;;5.95;100.00;100536.38;4181624;28;20029;-78
2024/03/05 00:56:16;;;;;;;5.30;1.55;;;6.70;99.90;;;5.89;100.00;100536.91;4181322;28;20030;-78
2024/03/05 00:58:17;;;;;;;5.13;1.60;;;6.70;99.90;;;5.90;100.00;100541.19;4184014;28;20163;-78
2024/03/05 01:00:19;;;;;;;4.65;0.80;;;6.70;99.90;;;5.94;100.00;100560.94;4177918;28;20087;-78
2024/03/05 01:02:21;;;;;;;3.97;0.80;;;6.70;99.90;;;5.90;100.00;100551.66;4170786;28;20061;-78
2024/03/05 01:04:23;;;;;;;4.05;1.50;;;6.70;99.90;;;5.81;100.00;100550.63;4183800;28;20025;-78
2024/03/05 01:06:24;;;;;;;4.05;0.93;;;6.60;99.90;;;5.89;100.00;100568.31;4183903;28;20039;-78
2024/03/05 01:08:24;;;;;;;3.75;1.40;;;6.60;99.90;;;5.80;100.00;100561.22;4168684;28;20029;-78
2024/03/05 01:10:25;;;;;;;2.05;1.00;;;6.60;99.90;;;5.83;100.00;100574.03;4183745;28;20492;-78
2024/03/05 01:12:26;;;;;;;4.40;1.85;;;6.60;99.90;;;5.77;100.00;100570.16;4178762;28;20052;-78
2024/03/05 01:14:27;;;;;;;3.05;1.23;;;6.50;99.90;;;5.73;100.00;100566.16;4190491;28;20025;-78
2024/03/05 01:16:27;;;;;;;4.07;1.10;;;6.40;99.90;;;5.69;100.00;100575.22;4183431;28;20056;-78
2024/03/05 01:18:28;;;;;;;2.70;1.00;;;6.40;99.90;;;5.61;100.00;100584.66;4184814;28;20021;-78
2024/03/05 01:20:29;;;;;;;3.58;1.42;;;6.40;99.90;;;5.51;100.00;100582.81;4183072;28;20030;-78
2024/03/05 01:22:30;;;;;;;2.85;0.88;;;6.30;99.90;;;5.42;100.00;100572.28;4183427;28;20506;-78
2024/03/05 01:24:31;;;;;;;3.00;1.35;;;6.30;99.90;;;5.38;100.00;100590.00;4173770;28;20029;-77
2024/03/05 01:26:32;;;;;;;4.70;0.98;;;6.20;99.90;;;5.34;100.00;100591.25;4181573;28;20086;-77
2024/03/05 01:28:34;;;;;;;4.22;1.13;;;6.10;99.90;;;5.29;100.00;100603.84;4185009;28;20396;-77
2024/03/05 01:30:35;;;;;;;4.50;1.48;;;6.10;99.90;;;5.25;100.00;100602.44;4185827;28;20033;-78
2024/03/05 01:32:36;;;;;;;3.67;1.02;;;6.10;99.90;;;5.22;100.00;100597.47;4186691;28;20073;-77
2024/03/05 01:34:37;;;;;;;6.40;1.33;;;6.00;99.90;;;5.23;100.00;100606.13;4172937;28;20034;-77
2024/03/05 01:36:38;;;;;;;3.55;1.55;;;6.00;99.90;;;5.22;100.00;100602.69;4184463;28;20075;-78
2024/03/05 01:38:39;;;;;;;4.57;1.20;;;6.00;99.90;;;5.26;100.00;100614.56;4186723;28;20021;-78
2024/03/05 01:40:40;;;;;;;4.07;0.80;;;6.00;99.90;;;5.30;100.00;100615.13;4171323;28;20033;-78
2024/03/05 01:42:41;;;;;;;3.47;1.40;;;6.10;99.90;;;5.33;100.00;100610.50;4174497;28;20075;-78
2024/03/05 01:44:42;;;;;;;9.25;1.83;;;6.10;99.90;;;5.35;100.00;100616.41;4171115;28;20448;-78
2024/03/05 01:46:45;;;;;;;4.03;1.60;;;6.10;99.90;;;5.30;100.00;100615.97;4186616;28;20108;-78
2024/03/05 01:48:46;;;;;;;4.05;1.65;;;6.00;99.90;;;5.26;100.00;100621.56;4179916;28;20040;-78
2024/03/05 01:50:47;;;;;;;6.85;1.80;;;6.00;99.90;;;5.16;100.00;100615.44;4175023;28;20036;-77
2024/03/05 01:52:48;;;;;;;5.93;1.55;;;5.90;99.90;;;5.11;100.00;100607.94;4186365;28;20467;-78
2024/03/05 01:54:52;;;;;;;7.13;2.22;;;5.90;99.90;;;4.99;100.00;100607.16;4187301;28;20017;-78
2024/03/05 01:56:57;;;;;;;;;;;5.80;99.90;;;4.89;100.00;100605.44;4171558;28;20561;-77
2024/03/05 01:58:59;;;;;;;2.97;1.70;;;5.80;99.90;;;4.84;100.00;100604.94;4169943;28;19909;-78
2024/03/05 02:01:06;;;;;;;4.18;1.10;;;5.70;99.90;;;4.80;100.00;100611.38;4188538;28;20033;-77
2024/03/05 02:03:09;;;;;;;5.82;1.48;;;5.70;99.90;;;4.71;100.00;100604.28;4186219;28;20061;-77
2024/03/05 02:05:12;;;;;;;4.80;1.30;;;5.60;99.90;;;4.73;100.00;100618.03;4174951;28;20024;-78
2024/03/05 02:07:14;;;;;;;9.65;5.03;;;5.50;99.90;;;4.67;100.00;100610.69;4169805;28;20026;-77
2024/03/05 02:09:15;;;;;;;11.23;5.90;;;5.50;99.90;;;4.68;100.00;100621.03;4169844;28;20083;-78
2024/03/05 02:11:17;;;;;;;12.50;6.10;;;5.50;99.90;;;4.63;100.00;100619.75;4173709;28;20028;-78
2024/03/05 02:13:17;;;;;;;9.38;5.13;;;5.40;99.90;;;4.55;100.00;100627.31;4174615;28;20037;-77
2024/03/05 02:15:19;;;;;;;10.98;5.25;;;5.40;99.90;;;4.50;100.00;100627.69;4183840;28;20116;-77
2024/03/05 02:17:20;;;;;;;10.18;4.25;;;5.30;99.90;;;4.45;100.00;100635.88;4186270;28;20029;-78
2024/03/05 02:19:23;;;;;;;9.27;4.78;;;5.20;99.90;;;4.38;100.00;100621.66;4186139;28;20033;-78
2024/03/05 02:21:24;;;;;;;8.35;4.68;;;5.20;99.90;;;4.35;100.00;100632.34;4185880;28;20036;-78
2024/03/05 02:23:25;;;;;;;9.18;3.78;;;5.20;99.90;;;4.33;100.00;100639.44;4173431;28;20052;-78
2024/03/05 02:25:26;;;;;;;10.82;5.32;;;5.10;99.90;;;4.27;100.00;100632.09;4170798;28;20037;-78
2024/03/05 02:27:27;;;;;;;10.60;3.50;;;5.10;99.90;;;4.33;100.00;100641.25;4185994;28;20032;-78
2024/03/05 02:29:29;;;;;;;9.32;4.13;;;5.10;99.90;;;4.39;100.00;100636.34;4179717;28;20028;-78
2024/03/05 02:31:31;;;;;;;5.18;1.77;;;5.20;99.90;;;4.50;100.00;100643.38;4177827;28;20123;-78
2024/03/05 02:33:34;;;;;;;4.63;1.38;;;5.30;99.90;;;4.57;100.00;100633.28;4173894;28;20508;-78
2024/03/05 02:35:35;;;;;;;7.53;1.80;;;5.30;99.90;;;4.62;100.00;100633.75;4176173;28;20154;-78
2024/03/05 02:37:39;;;;;;;5.53;0.90;;;5.40;99.90;;;4.62;100.00;100631.97;4176724;28;20382;-78
2024/03/05 02:39:40;;;;;;;;;;;5.40;99.90;;;4.59;100.00;100636.59;4186019;28;20102;-78
2024/03/05 02:41:40;;;;;;;3.00;0.70;;;5.40;99.90;;;4.55;100.00;100643.00;4175888;28;20343;-78
2024/03/05 02:43:41;;;;;;;6.80;1.10;;;5.40;99.90;;;4.45;100.00;100633.25;4186782;28;20036;-78
2024/03/05 02:45:42;;;;;;;3.50;1.00;;;5.30;99.90;;;4.45;100.00;100635.03;4174930;28;20030;-78
2024/03/05 02:47:43;;;;;;;5.85;0.80;;;5.30;99.90;;;4.40;100.00;100637.19;4183722;28;20488;-78
2024/03/05 02:49:44;;;;;;;4.25;0.88;;;5.30;99.90;;;4.38;100.00;100634.72;4182174;28;20075;-78
2024/03/05 02:51:46;;;;;;;8.35;1.80;;;5.20;99.90;;;4.42;100.00;100654.41;4171024;28;20026;-78
2024/03/05 02:53:47;;;;;;;2.55;1.20;;;5.20;99.90;;;4.30;100.00;100644.91;4179167;28;20031;-78
2024/03/05 02:55:48;;;;;;;6.53;1.40;;;5.20;99.90;;;4.27;100.00;100650.34;4172012;28;20104;-78
2024/03/05 02:57:48;;;;;;;6.03;1.27;;;5.10;99.90;;;4.22;100.00;100639.44;4169078;28;20029;-78
2024/03/05 02:59:49;;;;;;;7.22;1.17;;;5.00;99.90;;;4.19;100.00;100639.69;4169934;28;20037;-78
2024/03/05 03:01:50;;;;;;;6.38;1.08;;;5.00;99.90;;;4.14;100.00;100644.44;4178144;28;20068;-78
2024/03/05 03:03:51;;;;;;;6.68;1.00;;;5.00;99.90;;;4.13;100.00;100639.31;4185248;28;20017;-78
2024/03/05 03:05:52;;;;;;;5.32;0.77;;;5.00;99.90;;;4.12;100.00;100641.09;4152945;28;20034;-78
2024/03/05 03:07:53;;;;;;;1.88;0.60;;;4.90;99.90;;;4.11;100.00;100643.84;4185383;28;20013;-78
2024/03/05 03:09:53;;;;;;;3.05;1.08;;;4.90;99.90;;;4.07;100.00;100639.78;4170039;28;20444;-78
2024/03/05 03:11:55;;;;;;;3.58;1.00;;;4.90;99.90;;;4.01;100.00;100640.25;4178293;28;20020;-78
2024/03/05 03:13:55;;;;;;;4.20;0.93;;;4.80;99.90;;;3.94;100.00;100639.91;4172806;28;20108;-78
2024/03/05 03:15:56;;;;;;;2.75;0.85;;;4.80;99.90;;;3.89;100.00;100644.63;4179447;28;20397;-78
2024/03/05 03:17:58;;;;;;;5.45;1.20;;;4.70;99.90;;;3.83;100.00;100645.09;4152353;28;20520;-77
2024/03/05 03:19:59;;;;;;;5.82;1.65;;;4.70;99.90;;;3.81;100.00;100655.66;4180711;28;20024;-78
2024/03/05 03:21:59;;;;;;;3.88;1.80;;;4.60;99.90;;;3.77;100.00;100659.41;4184289;28;20080;-78
2024/03/05 03:24:00;;;;;;;4.95;1.50;;;4.60;99.90;;;3.73;100.00;100657.16;4184863;28;20029;-78
2024/03/05 03:26:01;;;;;;;5.00;1.58;;;4.50;99.90;;;3.65;100.00;100655.13;4178207;28;20024;-78
2024/03/05 03:28:02;;;;;;;4.25;2.08;;;4.50;99.90;;;3.66;100.00;100664.63;4173299;28;20029;-77
2024/03/05 03:30:05;;;;;;;4.22;1.95;;;4.50;99.90;;;3.63;100.00;100671.84;4184262;28;20025;-77
2024/03/05 03:32:10;;;;;;;3.38;1.58;;;4.40;99.90;;;3.59;100.00;100667.78;4180725;28;20025;-78
2024/03/05 03:34:10;;;;;;;4.50;2.20;;;4.40;99.90;;;3.55;100.00;100675.03;4171387;28;20103;-77
2024/03/05 03:36:23;;;;;;;4.60;1.92;;;4.40;99.90;;;3.51;100.00;100672.72;4168239;28;20025;-78
2024/03/05 03:38:24;;;;;;;3.20;1.63;;;4.40;99.90;;;3.47;100.00;100676.50;4169677;28;20420;-78
2024/03/05 03:40:25;;;;;;;6.55;1.80;;;4.30;99.90;;;3.49;100.00;100685.91;4169484;28;20029;-78
2024/03/05 03:42:29;;;;;;;7.43;2.03;;;4.40;99.90;;;3.61;100.00;100692.00;4184506;28;20033;-78
2024/03/05 03:44:31;;;;;;;2.67;1.60;;;4.50;99.90;;;3.74;100.00;100692.72;4181542;28;20044;-78
2024/03/05 03:46:34;;;;;;;5.35;1.92;;;4.60;99.90;;;3.95;100.00;100696.34;4184426;28;20063;-78
2024/03/05 03:48:39;;;;;;;9.65;2.10;;;4.70;99.90;;;4.12;100.00;100690.69;4179097;28;20460;-78
2024/03/05 03:50:39;;;;;;;4.45;1.13;;;4.80;99.90;;;4.27;100.00;100689.53;4178464;28;20033;-78
2024/03/05 03:52:41;;;;;;;6.30;1.20;;;4.90;99.90;;;4.27;100.00;100689.53;4172379;28;20029;-78
2024/03/05 03:54:42;;;;;;;5.57;1.20;;;5.00;99.90;;;4.27;100.00;100694.75;4187010;28;20086;-78
2024/03/05 03:56:43;;;;;;;7.40;1.10;;;5.00;99.90;;;4.34;100.00;100702.94;4178208;28;20525;-78
2024/03/05 03:58:44;;;;;;;6.43;1.92;;;5.10;99.90;;;4.33;100.00;100704.72;4178916;28;20044;-77
2024/03/05 04:00:44;;;;;;;6.15;1.42;;;5.10;99.90;;;4.33;100.00;100699.50;4171118;28;20036;-78
2024/03/05 04:02:46;;;;;;;4.88;1.25;;;5.10;99.90;;;4.29;100.00;100705.91;4182225;28;20091;-78
2024/03/05 04:04:48;;;;;;;2.85;1.05;;;5.10;99.90;;;4.27;100.00;100715.63;4169291;28;20053;-78
2024/03/05 04:06:49;;;;;;;5.82;1.45;;;5.10;99.90;;;4.17;100.00;100690.34;4169050;28;20044;-78
2024/03/05 04:08:50;;;;;;;4.22;1.05;;;5.10;99.90;;;4.28;100.00;100709.47;4184242;28;20055;-78
2024/03/05 04:10:51;;;;;;;8.88;1.30;;;5.10;99.90;;;4.35;100.00;100709.84;4171206;28;20037;-78
2024/03/05 04:12:52;;;;;;;3.72;0.85;;;5.10;99.90;;;4.37;100.00;100706.16;4178879;28;20026;-78
2024/03/05 04:14:54;;;;;;;6.38;1.20;;;5.20;99.90;;;4.33;100.00;100701.31;4178910;28;20025;-79
2024/03/05 04:16:55;;;;;;;6.65;1.23;;;5.10;99.90;;;4.26;100.00;100700.94;4170503;28;20056;-78
2024/03/05 04:18:57;;;;;;;8.43;1.08;;;5.00;99.90;;;4.22;100.00;100704.72;4172528;28;20021;-78
2024/03/05 04:20:58;;;;;;;4.45;1.20;;;5.00;99.90;;;4.12;100.00;100698.50;4185405;28;20021;-78
2024/03/05 04:22:59;;;;;;;3.72;1.55;;;5.00;99.90;;;4.11;100.00;100704.69;4174237;28;20529;-78
2024/03/05 04:24:59;;;;;;;4.32;0.90;;;4.90;99.90;;;4.08;100.00;100706.72;4167505;28;20025;-78
2024/03/05 04:27:03;;;;;;;2.40;0.75;;;4.90;99.90;;;3.99;100.00;100699.56;4184944;28;20086;-78
2024/03/05 04:29:06;;;;;;;6.20;1.08;;;4.90;99.90;;;4.03;100.00;100714.91;4167835;28;20535;-78
2024/03/05 04:31:09;;;;;;;5.97;0.95;;;4.80;99.90;;;4.00;100.00;100719.50;4185042;28;20036;-78
2024/03/05 04:33:11;;;;;;;5.90;1.23;;;4.80;99.90;;;3.95;100.00;100730.28;4183865;28;20115;-78
2024/03/05 04:35:13;;;;;;;6.13;0.93;;;4.80;99.90;;;3.94;100.00;100728.63;4168667;28;20517;-78
2024/03/05 04:37:14;;;;;;;4.20;0.85;;;4.80;99.90;;;3.99;100.00;100739.56;4184269;28;20036;-78
2024/03/05 04:39:15;;;;;;;6.20;0.90;;;4.80;99.90;;;3.99;100.00;100746.53;4184135;28;20021;-79
2024/03/05 04:41:16;;;;;;;3.88;1.05;;;4.80;99.90;;;3.99;100.00;100751.75;4170652;28;20433;-78
2024/03/05 04:43:16;;;;;;;4.80;0.73;;;4.80;99.90;;;3.96;100.00;100747.59;4168745;28;20099;-78
2024/03/05 04:45:17;;;;;;;4.60;0.90;;;4.80;99.90;;;3.95;100.00;100751.16;4168603;28;20036;-78
2024/03/05 04:47:19;;;;;;;6.10;1.52;;;4.80;99.90;;;3.95;100.00;100756.38;4183759;28;20029;-78
2024/03/05 04:49:20;;;;;;;4.97;0.85;;;4.70;99.90;;;3.84;100.00;100751.13;4168630;28;20108;-78
2024/03/05 04:51:20;;;;;;;6.40;0.93;;;4.70;99.90;;;3.83;100.00;100768.53;4170894;28;20071;-78
2024/03/05 04:53:22;;;;;;;4.45;0.90;;;4.70;99.90;;;3.78;100.00;100762.00;4179107;28;20052;-78
2024/03/05 04:55:23;;;;;;;4.30;1.02;;;4.60;99.90;;;3.74;100.00;100760.56;4183839;28;20135;-78
2024/03/05 04:57:23;;;;;;;4.10;0.55;;;4.60;99.90;;;3.71;100.00;100768.59;4179791;28;20029;-78
2024/03/05 04:59:24;;;;;;;3.58;0.90;;;4.50;99.90;;;3.69;100.00;100773.09;4169251;28;20022;-77
2024/03/05 05:01:25;;;;;;;4.75;1.10;;;4.50;99.90;;;3.66;100.00;100774.16;4171060;28;20037;-78
2024/03/05 05:03:26;;;;;;;4.45;0.95;;;4.50;99.90;;;3.63;100.00;100781.38;4176489;28;20025;-78
2024/03/05 05:05:27;;;;;;;3.85;0.70;;;4.40;99.90;;;3.53;100.00;100773.38;4169498;28;20033;-78
2024/03/05 05:07:28;;;;;;;6.03;1.13;;;4.40;99.90;;;3.51;100.00;100772.66;4186988;28;20029;-78
2024/03/05 05:09:29;;;;;;;6.65;0.95;;;4.40;99.90;;;3.55;100.00;100781.09;4175457;28;20025;-78
2024/03/05 05:11:29;;;;;;;7.78;1.58;;;4.40;99.90;;;3.54;100.00;100788.09;4182183;28;20021;-78
2024/03/05 05:13:30;;;;;;;3.03;0.80;;;4.40;99.90;;;3.55;100.00;100787.16;4176715;28;20080;-78
2024/03/05 05:15:32;;;;;;;9.10;0.90;;;4.40;99.90;;;3.60;100.00;100790.25;4202317;28;20050;-78
2024/03/05 05:17:34;;;;;;;3.35;0.85;;;4.40;99.90;;;3.63;100.00;100795.25;4188219;28;20029;-78
2024/03/05 05:19:35;;;;;;;5.15;0.98;;;4.50;99.90;;;3.64;100.00;100789.09;4186930;28;20021;-78
2024/03/05 05:21:36;;;;;;;7.25;1.20;;;4.50;99.90;;;3.74;100.00;100795.31;4178055;28;20048;-78
2024/03/05 05:23:37;;;;;;;4.65;0.90;;;4.60;99.90;;;3.89;100.00;100804.63;4172696;28;20056;-78
2024/03/05 05:25:38;;;;;;;5.22;1.23;;;4.70;99.90;;;4.01;100.00;100809.88;4171639;28;20112;-78
2024/03/05 05:27:39;;;;;;;4.80;1.10;;;4.80;99.90;;;4.03;100.00;100808.84;4171513;28;20501;-78
2024/03/05 05:29:40;;;;;;;4.85;0.75;;;4.80;99.90;;;4.02;100.00;100808.94;4171301;28;20396;-78
2024/03/05 05:31:41;;;;;;;6.18;1.42;;;4.90;99.90;;;4.04;100.00;100805.28;4189228;28;20024;-78
2024/03/05 05:33:42;;;;;;;5.25;0.80;;;4.90;99.90;;;4.07;100.00;100809.44;4179066;28;20391;-79
2024/03/05 05:35:43;;;;;;;2.85;0.70;;;4.90;99.90;;;4.09;100.00;100803.16;4186784;28;20036;-78
2024/03/05 05:37:44;;;;;;;3.85;1.02;;;4.90;99.90;;;4.18;100.00;100810.31;4186577;28;20035;-78
2024/03/05 05:39:45;;;;;;;5.32;1.05;;;5.00;99.90;;;4.22;100.00;100808.31;4187726;28;20032;-78
2024/03/05 05:41:46;;;;;;;7.38;1.65;;;5.00;99.90;;;4.24;100.00;100822.09;4182452;28;20014;-79
2024/03/05 05:43:51;;;;;;;6.47;1.58;;;5.00;99.90;;;4.20;100.00;100818.03;4179052;28;20025;-78
2024/03/05 05:45:51;;;;;;;;;;;5.00;99.90;;;4.13;100.00;100820.28;4188022;28;20021;-77
2024/03/05 05:47:53;;;;;;;6.03;1.50;;;5.00;99.90;;;4.14;100.00;100829.78;4186199;28;19908;-78
2024/03/05 05:49:54;;;;;;;9.98;2.70;;;5.00;99.90;;;4.14;100.00;100832.38;4182705;28;20087;-78
2024/03/05 05:51:55;;;;;;;5.80;2.53;;;5.00;99.90;;;4.18;100.00;100838.22;4177580;28;20047;-78
2024/03/05 05:53:55;;;;;;;13.75;3.42;;;5.00;99.90;;;4.22;100.00;100831.81;4176899;28;20025;-78
2024/03/05 05:55:56;;;;;;;4.55;2.67;;;5.00;99.90;;;4.16;100.00;100822.66;4186400;28;20021;-78
2024/03/05 05:57:57;;;;;;;7.13;2.58;;;5.00;99.90;;;4.19;100.00;100840.69;4174147;28;20025;-77
2024/03/05 05:59:58;;;;;;;5.82;2.08;;;5.00;99.90;;;4.11;100.00;100829.16;4179950;28;20025;-78
2024/03/05 06:01:59;;;;;;;6.40;2.25;;;5.00;99.90;;;4.20;100.00;100849.38;4186090;28;20051;-78
2024/03/05 06:04:01;;;;;;;7.55;2.58;;;5.00;99.90;;;4.22;100.00;100845.69;4173226;28;20163;-78
2024/03/05 06:06:03;;;;;;;8.93;3.10;;;5.00;99.90;;;4.20;100.00;100850.22;4186383;28;20365;-78
2024/03/05 06:08:10;;;;;;;8.93;2.83;;;5.00;99.90;;;4.17;100.00;100854.81;4173736;28;20032;-79
2024/03/05 06:10:14;;;;;;;10.43;2.75;;;5.00;99.90;;;4.14;100.00;100868.94;4186284;28;20036;-78
2024/03/05 06:12:15;;;;;;;14.73;3.67;;;4.90;99.90;;;4.12;100.00;100857.75;4177028;28;20087;-78
2024/03/05 06:14:15;;;;;;;10.10;2.50;;;4.90;99.90;;;4.08;100.00;100864.16;4176299;28;20036;-78
2024/03/05 06:16:16;;;;;;;10.80;2.65;;;4.90;99.90;;;4.05;100.00;100859.16;4185526;28;20423;-78
2024/03/05 06:18:17;;;;;;;4.65;2.00;;;4.80;99.90;;;3.99;100.00;100859.59;4186629;28;20472;-78
2024/03/05 06:20:18;;;;;;;5.60;2.00;;;4.80;99.90;;;3.93;100.00;100862.66;4187296;28;20420;-78
2024/03/05 06:22:19;;;;;;;8.10;3.00;;;4.80;99.90;;;3.86;100.00;100859.66;4182224;28;20031;-79
2024/03/05 06:24:21;;;;;;;8.18;2.63;;;4.70;99.90;;;3.82;100.00;100878.25;4186193;28;20578;-78
2024/03/05 06:26:21;;;;;;;10.13;2.75;;;4.60;99.90;;;3.71;100.00;100858.13;4164756;28;20120;-78
2024/03/05 06:28:22;;;;;;;6.20;1.60;;;4.60;99.90;;;3.69;100.00;100861.81;4172178;28;20048;-79
2024/03/05 06:30:24;;;;;;;11.15;2.13;;;4.60;99.90;;;3.67;100.00;100866.31;4186103;28;20033;-78
2024/03/05 06:32:25;;;;;;;7.45;2.03;;;4.50;99.90;;;3.60;100.00;100872.88;4171459;28;20022;-78
2024/03/05 06:34:26;;;;;;;3.92;1.42;;;4.40;99.90;;;3.57;100.00;100873.09;4188040;28;20093;-78
2024/03/05 06:36:27;;;;;;;5.35;1.48;;;4.40;99.90;;;3.52;100.00;100868.22;4170383;28;20029;-78
2024/03/05 06:38:28;;;;;;;5.03;1.25;;;4.30;99.90;;;3.50;100.00;100882.28;4170689;28;20493;-78
2024/03/05 06:40:28;;;;;;;4.85;1.88;;;4.30;99.90;;;3.45;100.00;100879.19;4170467;28;20022;-78
2024/03/05 06:42:32;;;;;;;3.38;0.90;;;4.30;99.90;;;3.44;100.00;100886.16;4195761;28;20029;-79
2024/03/05 06:44:36;;;;;;;8.38;1.38;;;4.30;99.90;;;3.39;100.00;100884.81;4185732;28;20033;-78
2024/03/05 06:46:41;;;;;;;6.90;0.82;;;4.20;99.90;;;3.38;100.00;100889.19;4180559;28;20029;-79
2024/03/05 06:48:47;;;;;;;5.57;0.77;;;4.20;99.90;;;3.37;100.00;100895.38;4178171;28;20024;-78
2024/03/05 06:50:57;;;;;;;3.00;0.80;;;4.20;99.90;;;3.37;100.00;100897.13;4156619;28;20034;-78
2024/03/05 06:57:36;;;;;;;5.43;1.33;;;4.20;99.90;;;3.38;100.00;100910.06;4186605;28;20113;-78
2024/03/05 06:59:37;;;;;;;6.75;1.45;;;4.20;99.90;;;3.37;100.00;100918.00;4185241;28;20407;-78
2024/03/05 07:01:38;;;;;;;6.88;1.45;;;4.20;99.90;;;3.36;100.00;100914.53;4162326;28;20106;-79
2024/03/05 07:03:40;;;;;;;4.63;1.05;;;4.20;99.90;;;3.33;100.00;100912.16;4172619;28;20041;-79
2024/03/05 07:05:42;;;;;;;5.95;1.67;;;4.20;99.90;;;3.36;100.00;100919.75;4184835;28;20063;-79
2024/03/05 07:07:42;;;;;;;8.95;3.17;;;4.20;99.90;;;3.30;100.00;100918.41;4185354;28;20118;-80
2024/03/05 07:09:43;;;;;;;10.07;4.15;;;4.20;99.90;;;3.39;100.00;100932.59;4201740;28;20032;-80
2024/03/05 07:11:44;;;;;;;8.07;2.78;;;4.20;99.90;;;3.37;100.00;100936.25;4186319;28;20025;-78
2024/03/05 07:13:48;;;;;;;7.93;1.90;;;4.20;99.90;;;3.36;100.00;100940.63;4171270;28;20030;-79
2024/03/05 07:15:50;;;;;;;6.78;2.88;;;4.20;99.90;;;3.37;100.00;100938.84;4168381;28;20076;-78
2024/03/05 07:17:51;;;;;;;8.95;3.33;;;4.20;99.90;;;3.41;100.00;100950.72;4176994;28;20030;-79
2024/03/05 07:19:52;;;;;;;12.32;3.17;;;4.20;99.90;;;3.33;100.00;100944.28;4177926;28;20361;-79
2024/03/05 07:21:54;;;;;;;5.88;3.70;;;4.20;99.90;;;3.46;100.00;100953.88;4184543;28;20021;-79
2024/03/05 07:23:55;;;;;;;6.38;1.65;;;4.30;99.90;;;3.41;100.00;100942.91;4185277;28;20100;-79
2024/03/05 07:25:56;;;;;;;13.20;3.60;;;4.30;99.90;;;3.41;100.00;100951.56;4185159;28;20389;-78
2024/03/05 07:27:57;;;;;;;5.47;3.35;;;4.30;99.90;;;3.46;100.00;100962.53;4169467;28;20025;-79
2024/03/05 07:29:58;;;;;;;8.43;2.85;;;4.30;99.90;;;3.49;100.00;100959.72;4169360;28;20083;-79
2024/03/05 07:31:58;;;;;;;9.98;2.55;;;4.30;99.90;;;3.49;100.00;100958.88;4169969;28;20028;-79
2024/03/05 07:33:59;;;;;;;8.27;1.50;;;4.30;99.90;;;3.56;100.00;100970.53;4187527;28;20021;-79
2024/03/05 07:36:01;;;;;;;8.93;1.70;;;4.40;99.90;;;3.59;100.00;100983.34;4169562;28;20032;-79
2024/03/05 07:38:02;;;;;;;3.63;1.50;;;4.40;99.90;;;3.59;100.00;100973.75;4194633;28;20036;-79
2024/03/05 07:40:11;;;;;;;8.70;2.03;;;4.40;99.90;;;3.60;100.00;100979.81;4169675;28;20392;-80
2024/03/05 07:42:13;;;;;;;9.18;2.80;;;4.40;99.90;;;3.63;100.00;100983.06;4190532;28;20106;-80
2024/03/05 07:44:14;;;;;;;5.70;2.10;;;4.40;99.90;;;3.64;100.00;100982.13;4173675;28;20459;-79
2024/03/05 07:46:17;;;;;;;8.57;2.75;;;4.50;99.90;;;3.66;100.00;100997.66;4169359;28;20041;-79
2024/03/05 07:48:18;;;;;;;6.18;2.17;;;4.50;99.90;;;3.67;100.00;100994.97;4186226;28;20554;-79
2024/03/05 07:50:19;;;;;;;4.10;1.40;;;4.50;99.90;;;3.62;100.00;100975.31;4184637;28;20033;-80
2024/03/05 07:52:20;;;;;;;5.43;1.77;;;4.50;99.90;;;3.74;100.00;101003.16;4185852;28;20472;-79
2024/03/05 07:54:20;;;;;;;5.43;1.35;;;4.50;99.90;;;3.80;100.00;101007.97;4168167;28;20033;-80
2024/03/05 07:56:21;;;;;;;4.85;1.10;;;4.60;99.90;;;3.86;100.00;101015.38;4185914;28;20017;-79
2024/03/05 07:58:22;;;;;;;5.25;1.75;;;4.70;99.90;;;3.89;100.00;101017.78;4185759;28;20040;-79
2024/03/05 08:00:24;;;;;;;10.20;2.00;;;4.70;99.90;;;3.94;100.00;101020.06;4184710;28;20029;-79
2024/03/05 08:02:25;;;;;;;7.03;1.40;;;4.70;99.90;;;4.06;100.00;101024.44;4181793;28;20037;-79
2024/03/05 08:04:26;;;;;;;7.18;2.28;;;4.80;99.90;;;4.13;100.00;101029.09;4184945;28;20089;-78
2024/03/05 08:06:28;;;;;;;5.60;1.65;;;4.90;99.90;;;4.17;100.00;101022.75;4184916;28;20029;-80
2024/03/05 08:08:29;;;;;;;3.70;1.50;;;5.00;99.90;;;4.33;100.00;101036.34;4185054;28;20053;-80
2024/03/05 08:10:34;;;;;;;4.43;1.42;;;5.00;99.90;;;4.37;100.00;101034.38;4183394;28;20037;-80
2024/03/05 08:12:35;;;;;;;;;;;5.10;99.90;;;4.33;100.00;101025.91;4172743;28;20045;-79
2024/03/05 08:14:36;;;;;;;4.88;2.08;;;5.20;99.90;;;4.55;100.00;101047.88;4158449;28;19909;-79
2024/03/05 08:16:38;;;;;;;9.52;2.20;;;5.30;99.90;;;4.57;100.00;101046.03;4178484;28;20033;-79
2024/03/05 08:18:39;;;;;;;10.75;2.38;;;5.40;99.90;;;4.61;100.00;101050.06;4167242;28;20029;-80
2024/03/05 08:20:40;;;;;;;7.38;2.47;;;5.40;99.90;;;4.65;100.00;101054.97;4162215;28;20072;-78
2024/03/05 08:22:43;;;;;;;10.05;2.28;;;5.50;99.90;;;4.68;100.00;101049.53;4169491;28;20026;-78
2024/03/05 08:24:44;;;;;;;11.55;2.22;;;5.50;99.90;;;4.71;100.00;101054.53;4183900;28;20116;-78
2024/03/05 08:26:45;;;;;;;4.95;2.33;;;5.50;99.90;;;4.76;100.00;101059.41;4169491;28;20027;-78
2024/03/05 08:28:46;;;;;;;9.27;2.08;;;5.50;99.90;;;4.74;100.00;101045.63;4176725;28;20051;-81
2024/03/05 08:30:46;;;;;;;8.02;2.80;;;5.60;99.90;;;4.81;100.00;101057.28;4168009;28;20029;-80
2024/03/05 08:32:49;;;;;;;6.55;2.25;;;5.60;99.90;;;4.84;100.00;101062.28;4183558;28;20029;-78
2024/03/05 08:34:51;;;;;;;14.45;2.85;;;5.60;99.90;;;4.92;100.00;101066.03;4169915;28;20055;-80
2024/03/05 08:36:53;;;;;;;8.73;1.90;;;5.70;99.90;;;5.01;100.00;101067.97;4183278;28;20045;-77